sensor_id;sensor_type;location;lat;lon;timestamp;temperature;humidity
18868;DHT22;9563;49.240;9.088;2023-09-18T04:02:27;19.40;99.90
18868;DHT22;9563;49.240;9.088;2023-09-18T04:04:55;19.30;99.90
18868;DHT22;9563;49.240;9.088;2023-09-18T04:07:22;19.30;99.90
18868;DHT22;9563;49.240;9.088;2023-09-18T04:09:49;19.30;99.90
18868;DHT22;9563;49.240;9.088;2023-09-18T04:12:16;19.30;99.90
18868;DHT22;9563;49.240;9.088;2023-09-18T04:14:43;19.30;99.90
18868;DHT22;9563;49.240;9.088;2023-09-18T04:17:11;19.30;99.90
18868;DHT22;9563;49.240;9.088;2023-09-18T04:19:39;19.20;99.90
18868;DHT22;9563;49.240;9.088;2023-09-18T04:22:06;19.20;99.90
18868;DHT22;9563;49.240;9.088;2023-09-18T04:24:33;19.20;99.90
18868;DHT22;9563;49.240;9.088;2023-09-18T04:27:01;19.20;99.90
18868;DHT22;9563;49.240;9.088;2023-09-18T04:29:28;19.30;99.90
18868;DHT22;9563;49.240;9.088;2023-09-18T04:31:55;19.40;99.90
18868;DHT22;9563;49.240;9.088;2023-09-18T04:34:23;19.40;99.90
18868;DHT22;9563;49.240;9.088;2023-09-18T04:36:51;19.50;99.90
18868;DHT22;9563;49.240;9.088;2023-09-18T04:39:18;19.50;99.90
18868;DHT22;9563;49.240;9.088;2023-09-18T04:41:46;19.50;99.90
18868;DHT22;9563;49.240;9.088;2023-09-18T04:44:13;19.40;99.90
18868;DHT22;9563;49.240;9.088;2023-09-18T04:46:40;19.40;99.90
18868;DHT22;9563;49.240;9.088;2023-09-18T04:49:08;19.30;99.90
18868;DHT22;9563;49.240;9.088;2023-09-18T04:51:36;19.30;99.90
18868;DHT22;9563;49.240;9.088;2023-09-18T04:54:06;19.30;99.90
18868;DHT22;9563;49.240;9.088;2023-09-18T04:56:32;19.30;99.90
18868;DHT22;9563;49.240;9.088;2023-09-18T04:58:59;19.30;99.90
18868;DHT22;9563;49.240;9.088;2023-09-18T05:01:26;19.30;99.90
18868;DHT22;9563;49.240;9.088;2023-09-18T05:03:53;19.30;99.90
18868;DHT22;9563;49.240;9.088;2023-09-18T05:06:20;19.30;99.90
18868;DHT22;9563;49.240;9.088;2023-09-18T05:08:47;19.20;99.90
18868;DHT22;9563;49.240;9.088;2023-09-18T05:11:15;19.20;99.90
18868;DHT22;9563;49.240;9.088;2023-09-18T05:13:44;19.20;99.90
18868;DHT22;9563;49.240;9.088;2023-09-18T05:16:11;19.20;99.90
18868;DHT22;9563;49.240;9.088;2023-09-18T05:18:38;19.20;99.90
18868;DHT22;9563;49.240;9.088;2023-09-18T05:21:06;19.10;99.90
18868;DHT22;9563;49.240;9.088;2023-09-18T05:23:35;19.10;99.90
18868;DHT22;9563;49.240;9.088;2023-09-18T05:26:01;19.10;99.90
18868;DHT22;9563;49.240;9.088;2023-09-18T05:28:30;19.10;99.90
18868;DHT22;9563;49.240;9.088;2023-09-18T05:30:57;19.20;99.90
18868;DHT22;9563;49.240;9.088;2023-09-18T05:33:24;19.20;99.90
18868;DHT22;9563;49.240;9.088;2023-09-18T05:35:51;19.20;99.90
18868;DHT22;9563;49.240;9.088;2023-09-18T05:38:18;19.20;99.90
18868;DHT22;9563;49.240;9.088;2023-09-18T05:40:45;19.20;99.90
18868;DHT22;9563;49.240;9.088;2023-09-18T05:43:12;19.20;99.90
18868;DHT22;9563;49.240;9.088;2023-09-18T05:45:40;19.30;99.90
18868;DHT22;9563;49.240;9.088;2023-09-18T05:48:07;19.30;99.90
18868;DHT22;9563;49.240;9.088;2023-09-18T05:50:35;19.30;99.90
18868;DHT22;9563;49.240;9.088;2023-09-18T05:53:02;19.30;99.90
18868;DHT22;9563;49.240;9.088;2023-09-18T05:55:30;19.30;99.90
18868;DHT22;9563;49.240;9.088;2023-09-18T05:57:57;19.30;99.90
18868;DHT22;9563;49.240;9.088;2023-09-18T06:00:24;19.30;99.90
18868;DHT22;9563;49.240;9.088;2023-09-18T06:02:52;19.20;99.90
18868;DHT22;9563;49.240;9.088;2023-09-18T06:05:19;19.20;99.90
18868;DHT22;9563;49.240;9.088;2023-09-18T06:07:48;19.20;99.90
18868;DHT22;9563;49.240;9.088;2023-09-18T06:10:15;19.30;99.90
18868;DHT22;9563;49.240;9.088;2023-09-18T06:12:43;19.20;99.90
18868;DHT22;9563;49.240;9.088;2023-09-18T06:15:10;19.30;99.90
18868;DHT22;9563;49.240;9.088;2023-09-18T06:17:38;19.30;99.90
18868;DHT22;9563;49.240;9.088;2023-09-18T06:20:09;19.40;99.90
18868;DHT22;9563;49.240;9.088;2023-09-18T06:22:37;19.50;99.90
18868;DHT22;9563;49.240;9.088;2023-09-18T06:25:05;19.60;99.90
18868;DHT22;9563;49.240;9.088;2023-09-18T06:27:34;19.60;99.90
18868;DHT22;9563;49.240;9.088;2023-09-18T06:30:02;19.70;99.90
18868;DHT22;9563;49.240;9.088;2023-09-18T06:32:29;19.80;99.90
18868;DHT22;9563;49.240;9.088;2023-09-18T06:34:55;19.90;99.90
18868;DHT22;9563;49.240;9.088;2023-09-18T06:37:24;19.90;99.90
18868;DHT22;9563;49.240;9.088;2023-09-18T06:39:51;20.00;99.90
18868;DHT22;9563;49.240;9.088;2023-09-18T06:42:18;20.00;99.90
18868;DHT22;9563;49.240;9.088;2023-09-18T06:44:45;19.90;99.90
18868;DHT22;9563;49.240;9.088;2023-09-18T06:47:12;19.90;99.90
18868;DHT22;9563;49.240;9.088;2023-09-18T06:49:42;19.90;99.90
18868;DHT22;9563;49.240;9.088;2023-09-18T06:52:09;19.90;99.90
18868;DHT22;9563;49.240;9.088;2023-09-18T06:54:37;19.90;99.90
18868;DHT22;9563;49.240;9.088;2023-09-18T06:57:04;19.90;99.90
18868;DHT22;9563;49.240;9.088;2023-09-18T06:59:31;19.90;99.90
18868;DHT22;9563;49.240;9.088;2023-09-18T07:02:00;20.00;99.90
18868;DHT22;9563;49.240;9.088;2023-09-18T07:04:27;19.90;99.90
18868;DHT22;9563;49.240;9.088;2023-09-18T07:06:54;19.90;99.90
18868;DHT22;9563;49.240;9.088;2023-09-18T07:09:22;19.90;99.90
18868;DHT22;9563;49.240;9.088;2023-09-18T07:11:53;19.90;99.90
18868;DHT22;9563;49.240;9.088;2023-09-18T07:14:19;19.90;99.90
18868;DHT22;9563;49.240;9.088;2023-09-18T07:16:47;20.00;99.90
18868;DHT22;9563;49.240;9.088;2023-09-18T07:19:13;20.00;99.90
18868;DHT22;9563;49.240;9.088;2023-09-18T07:21:43;20.00;99.90
18868;DHT22;9563;49.240;9.088;2023-09-18T07:24:10;20.00;99.90
18868;DHT22;9563;49.240;9.088;2023-09-18T07:26:43;20.00;99.90
18868;DHT22;9563;49.240;9.088;2023-09-18T07:29:12;20.00;99.90
18868;DHT22;9563;49.240;9.088;2023-09-18T07:31:39;20.00;99.90
18868;DHT22;9563;49.240;9.088;2023-09-18T07:34:06;20.00;99.90
18868;DHT22;9563;49.240;9.088;2023-09-18T07:36:33;20.00;99.90
18868;DHT22;9563;49.240;9.088;2023-09-18T07:39:00;20.00;99.90
18868;DHT22;9563;49.240;9.088;2023-09-18T07:41:27;20.00;99.90
18868;DHT22;9563;49.240;9.088;2023-09-18T07:43:54;20.00;99.90
18868;DHT22;9563;49.240;9.088;2023-09-18T07:46:24;19.90;99.90
18868;DHT22;9563;49.240;9.088;2023-09-18T07:48:51;20.00;99.90
18868;DHT22;9563;49.240;9.088;2023-09-18T07:51:18;19.90;99.90
18868;DHT22;9563;49.240;9.088;2023-09-18T07:53:44;19.90;99.90
18868;DHT22;9563;49.240;9.088;2023-09-18T07:56:12;20.00;99.90
18868;DHT22;9563;49.240;9.088;2023-09-18T07:58:39;20.10;99.90
18868;DHT22;9563;49.240;9.088;2023-09-18T08:01:06;20.10;99.90
18868;DHT22;9563;49.240;9.088;2023-09-18T08:03:36;20.10;99.90
18868;DHT22;9563;49.240;9.088;2023-09-18T08:06:07;20.20;99.90
18868;DHT22;9563;49.240;9.088;2023-09-18T08:08:34;20.20;99.90
18868;DHT22;9563;49.240;9.088;2023-09-18T08:11:07;20.20;99.90
18868;DHT22;9563;49.240;9.088;2023-09-18T08:13:35;20.00;99.90
18868;DHT22;9563;49.240;9.088;2023-09-18T08:16:02;20.00;99.90
18868;DHT22;9563;49.240;9.088;2023-09-18T08:18:29;19.90;99.90
18868;DHT22;9563;49.240;9.088;2023-09-18T08:20:57;19.90;99.90
18868;DHT22;9563;49.240;9.088;2023-09-18T08:23:25;19.90;99.90
18868;DHT22;9563;49.240;9.088;2023-09-18T08:25:53;19.90;99.90
18868;DHT22;9563;49.240;9.088;2023-09-18T08:28:22;20.00;99.90
18868;DHT22;9563;49.240;9.088;2023-09-18T08:30:49;20.00;99.90
18868;DHT22;9563;49.240;9.088;2023-09-18T08:33:16;20.10;99.90
18868;DHT22;9563;49.240;9.088;2023-09-18T08:35:43;20.00;99.90
18868;DHT22;9563;49.240;9.088;2023-09-18T08:38:16;20.00;99.90
18868;DHT22;9563;49.240;9.088;2023-09-18T08:40:43;20.00;99.90
18868;DHT22;9563;49.240;9.088;2023-09-18T08:43:12;20.00;99.90
18868;DHT22;9563;49.240;9.088;2023-09-18T08:45:46;20.00;99.90
18868;DHT22;9563;49.240;9.088;2023-09-18T08:48:14;20.10;99.90
18868;DHT22;9563;49.240;9.088;2023-09-18T08:50:41;20.10;99.90
18868;DHT22;9563;49.240;9.088;2023-09-18T08:53:09;20.10;99.90
18868;DHT22;9563;49.240;9.088;2023-09-18T08:55:37;20.10;99.90
18868;DHT22;9563;49.240;9.088;2023-09-18T08:58:06;20.10;99.90
18868;DHT22;9563;49.240;9.088;2023-09-18T09:00:33;20.10;99.90
18868;DHT22;9563;49.240;9.088;2023-09-18T09:03:03;20.10;99.90
18868;DHT22;9563;49.240;9.088;2023-09-18T09:05:31;20.10;99.90
18868;DHT22;9563;49.240;9.088;2023-09-18T09:07:58;20.20;99.90
18868;DHT22;9563;49.240;9.088;2023-09-18T09:10:25;20.20;99.90
18868;DHT22;9563;49.240;9.088;2023-09-18T09:12:55;20.20;99.90
18868;DHT22;9563;49.240;9.088;2023-09-18T09:15:24;20.20;99.90
18868;DHT22;9563;49.240;9.088;2023-09-18T09:17:52;20.10;99.90
18868;DHT22;9563;49.240;9.088;2023-09-18T09:20:28;20.10;99.90
18868;DHT22;9563;49.240;9.088;2023-09-18T09:23:00;20.10;99.90
18868;DHT22;9563;49.240;9.088;2023-09-18T09:25:28;20.10;99.90
18868;DHT22;9563;49.240;9.088;2023-09-18T09:27:59;20.00;99.90
18868;DHT22;9563;49.240;9.088;2023-09-18T09:30:29;19.90;99.90
18868;DHT22;9563;49.240;9.088;2023-09-18T09:32:57;19.80;99.90
18868;DHT22;9563;49.240;9.088;2023-09-18T09:35:25;19.80;99.90
18868;DHT22;9563;49.240;9.088;2023-09-18T09:38:01;19.80;99.90
18868;DHT22;9563;49.240;9.088;2023-09-18T09:40:33;19.80;99.90
18868;DHT22;9563;49.240;9.088;2023-09-18T09:43:02;19.70;99.90
18868;DHT22;9563;49.240;9.088;2023-09-18T09:45:30;19.70;99.90
18868;DHT22;9563;49.240;9.088;2023-09-18T09:48:01;19.80;99.90
18868;DHT22;9563;49.240;9.088;2023-09-18T09:50:30;19.80;99.90
18868;DHT22;9563;49.240;9.088;2023-09-18T09:52:58;19.70;99.90
18868;DHT22;9563;49.240;9.088;2023-09-18T09:55:26;19.80;99.90
18868;DHT22;9563;49.240;9.088;2023-09-18T09:57:55;19.80;99.90
18868;DHT22;9563;49.240;9.088;2023-09-18T10:00:30;19.80;99.90
18868;DHT22;9563;49.240;9.088;2023-09-18T10:03:04;19.90;99.90
18868;DHT22;9563;49.240;9.088;2023-09-18T10:05:33;19.90;99.90
18868;DHT22;9563;49.240;9.088;2023-09-18T10:08:04;19.90;99.90
18868;DHT22;9563;49.240;9.088;2023-09-18T10:10:33;19.90;99.90
18868;DHT22;9563;49.240;9.088;2023-09-18T10:13:05;19.90;99.90
18868;DHT22;9563;49.240;9.088;2023-09-18T10:15:35;19.90;99.90
18868;DHT22;9563;49.240;9.088;2023-09-18T10:18:07;20.00;99.90
18868;DHT22;9563;49.240;9.088;2023-09-18T10:20:39;20.10;99.90
18868;DHT22;9563;49.240;9.088;2023-09-18T10:23:15;20.10;99.90
18868;DHT22;9563;49.240;9.088;2023-09-18T10:25:48;20.20;99.90
18868;DHT22;9563;49.240;9.088;2023-09-18T10:28:17;20.30;99.90
18868;DHT22;9563;49.240;9.088;2023-09-18T10:30:49;20.20;99.90
18868;DHT22;9563;49.240;9.088;2023-09-18T10:33:17;20.30;99.90
18868;DHT22;9563;49.240;9.088;2023-09-18T10:35:46;20.40;99.90
18868;DHT22;9563;49.240;9.088;2023-09-18T10:38:14;20.40;99.90
18868;DHT22;9563;49.240;9.088;2023-09-18T10:40:43;20.30;99.90
18868;DHT22;9563;49.240;9.088;2023-09-18T10:43:11;20.30;99.90
18868;DHT22;9563;49.240;9.088;2023-09-18T10:45:38;20.30;99.90
18868;DHT22;9563;49.240;9.088;2023-09-18T10:48:07;20.30;99.90
18868;DHT22;9563;49.240;9.088;2023-09-18T10:50:35;20.40;99.90
18868;DHT22;9563;49.240;9.088;2023-09-18T10:53:05;20.40;99.90
18868;DHT22;9563;49.240;9.088;2023-09-18T10:55:32;20.50;99.90
18868;DHT22;9563;49.240;9.088;2023-09-18T10:58:00;20.60;99.90
18868;DHT22;9563;49.240;9.088;2023-09-18T11:00:29;20.60;99.90
18868;DHT22;9563;49.240;9.088;2023-09-18T11:03:14;20.60;99.90
18868;DHT22;9563;49.240;9.088;2023-09-18T11:05:44;20.60;99.90
18868;DHT22;9563;49.240;9.088;2023-09-18T11:08:30;20.60;99.90
18868;DHT22;9563;49.240;9.088;2023-09-18T11:11:01;20.50;99.90
18868;DHT22;9563;49.240;9.088;2023-09-18T11:13:36;20.40;99.90
18868;DHT22;9563;49.240;9.088;2023-09-18T11:16:14;20.40;99.90
18868;DHT22;9563;49.240;9.088;2023-09-18T11:18:47;20.40;99.90
18868;DHT22;9563;49.240;9.088;2023-09-18T11:21:15;20.40;99.90
18868;DHT22;9563;49.240;9.088;2023-09-18T11:23:43;20.40;99.90
18868;DHT22;9563;49.240;9.088;2023-09-18T11:26:10;20.40;99.90
18868;DHT22;9563;49.240;9.088;2023-09-18T11:28:38;20.40;99.90
18868;DHT22;9563;49.240;9.088;2023-09-18T11:31:05;20.40;99.90
18868;DHT22;9563;49.240;9.088;2023-09-18T11:33:35;20.40;99.90
18868;DHT22;9563;49.240;9.088;2023-09-18T11:36:29;20.40;99.90
18868;DHT22;9563;49.240;9.088;2023-09-18T11:38:58;20.40;99.90
18868;DHT22;9563;49.240;9.088;2023-09-18T11:41:30;20.50;99.90
18868;DHT22;9563;49.240;9.088;2023-09-18T11:44:31;20.50;99.90
18868;DHT22;9563;49.240;9.088;2023-09-18T11:47:00;20.60;99.90
18868;DHT22;9563;49.240;9.088;2023-09-18T11:49:30;20.60;99.90
18868;DHT22;9563;49.240;9.088;2023-09-18T11:51:59;20.70;99.90
18868;DHT22;9563;49.240;9.088;2023-09-18T11:54:27;20.70;99.90
18868;DHT22;9563;49.240;9.088;2023-09-18T11:56:55;20.70;99.90
18868;DHT22;9563;49.240;9.088;2023-09-18T11:59:37;20.80;99.90
18868;DHT22;9563;49.240;9.088;2023-09-18T12:02:04;20.80;99.90
18868;DHT22;9563;49.240;9.088;2023-09-18T12:04:34;20.80;99.90
18868;DHT22;9563;49.240;9.088;2023-09-18T12:07:03;20.90;99.90
18868;DHT22;9563;49.240;9.088;2023-09-18T12:09:31;20.90;99.90
18868;DHT22;9563;49.240;9.088;2023-09-18T12:11:58;20.90;99.90
18868;DHT22;9563;49.240;9.088;2023-09-18T12:14:30;20.90;99.90
18868;DHT22;9563;49.240;9.088;2023-09-18T12:16:57;20.80;99.90
18868;DHT22;9563;49.240;9.088;2023-09-18T12:19:25;20.70;99.90
18868;DHT22;9563;49.240;9.088;2023-09-18T12:21:52;20.70;99.90
18868;DHT22;9563;49.240;9.088;2023-09-18T12:24:22;20.60;99.90
18868;DHT22;9563;49.240;9.088;2023-09-18T12:26:51;20.60;99.90
18868;DHT22;9563;49.240;9.088;2023-09-18T12:29:18;20.60;99.90
18868;DHT22;9563;49.240;9.088;2023-09-18T12:31:45;20.60;99.90
18868;DHT22;9563;49.240;9.088;2023-09-18T12:34:17;20.60;99.90
18868;DHT22;9563;49.240;9.088;2023-09-18T12:36:47;20.60;99.90
18868;DHT22;9563;49.240;9.088;2023-09-18T12:39:14;20.70;99.90
18868;DHT22;9563;49.240;9.088;2023-09-18T12:41:44;20.80;99.90
18868;DHT22;9563;49.240;9.088;2023-09-18T12:44:11;21.00;99.90
18868;DHT22;9563;49.240;9.088;2023-09-18T12:46:40;21.20;99.90
18868;DHT22;9563;49.240;9.088;2023-09-18T12:49:17;21.20;99.90
18868;DHT22;9563;49.240;9.088;2023-09-18T12:51:54;21.20;99.90
18868;DHT22;9563;49.240;9.088;2023-09-18T12:54:35;21.20;99.90
18868;DHT22;9563;49.240;9.088;2023-09-18T12:57:05;21.20;99.90
18868;DHT22;9563;49.240;9.088;2023-09-18T12:59:33;21.10;99.90
18868;DHT22;9563;49.240;9.088;2023-09-18T13:02:01;21.10;99.90
18868;DHT22;9563;49.240;9.088;2023-09-18T13:04:30;21.00;99.90
18868;DHT22;9563;49.240;9.088;2023-09-18T13:07:06;21.10;99.90
18868;DHT22;9563;49.240;9.088;2023-09-18T13:09:33;21.20;99.90
18868;DHT22;9563;49.240;9.088;2023-09-18T13:12:01;21.50;99.90
18868;DHT22;9563;49.240;9.088;2023-09-18T13:14:29;21.90;99.90
18868;DHT22;9563;49.240;9.088;2023-09-18T13:17:00;22.00;99.90
18868;DHT22;9563;49.240;9.088;2023-09-18T13:19:30;22.10;99.90
18868;DHT22;9563;49.240;9.088;2023-09-18T13:21:57;22.10;99.90
18868;DHT22;9563;49.240;9.088;2023-09-18T13:24:25;22.10;99.90
18868;DHT22;9563;49.240;9.088;2023-09-18T13:26:53;21.90;99.90
18868;DHT22;9563;49.240;9.088;2023-09-18T13:29:20;21.90;99.90
18868;DHT22;9563;49.240;9.088;2023-09-18T13:31:49;21.90;99.90
18868;DHT22;9563;49.240;9.088;2023-09-18T13:34:16;21.70;99.90
18868;DHT22;9563;49.240;9.088;2023-09-18T13:36:43;21.80;99.90
18868;DHT22;9563;49.240;9.088;2023-09-18T13:39:11;21.80;99.90
18868;DHT22;9563;49.240;9.088;2023-09-18T13:41:38;21.80;99.90
18868;DHT22;9563;49.240;9.088;2023-09-18T13:44:06;21.70;99.90
18868;DHT22;9563;49.240;9.088;2023-09-18T13:46:33;21.80;99.90
18868;DHT22;9563;49.240;9.088;2023-09-18T13:49:03;21.80;99.90
18868;DHT22;9563;49.240;9.088;2023-09-18T13:51:31;21.90;99.90
18868;DHT22;9563;49.240;9.088;2023-09-18T13:53:58;21.90;99.90
18868;DHT22;9563;49.240;9.088;2023-09-18T13:56:25;21.80;99.90
18868;DHT22;9563;49.240;9.088;2023-09-18T13:58:54;21.90;99.90
18868;DHT22;9563;49.240;9.088;2023-09-18T14:01:21;21.90;99.90
18868;DHT22;9563;49.240;9.088;2023-09-18T14:03:49;21.90;99.90
18868;DHT22;9563;49.240;9.088;2023-09-18T14:06:17;21.90;99.90
18868;DHT22;9563;49.240;9.088;2023-09-18T14:08:44;22.00;99.90
18868;DHT22;9563;49.240;9.088;2023-09-18T14:11:11;22.00;99.90
18868;DHT22;9563;49.240;9.088;2023-09-18T14:13:38;21.90;99.90
18868;DHT22;9563;49.240;9.088;2023-09-18T14:16:05;21.80;99.90
18868;DHT22;9563;49.240;9.088;2023-09-18T14:18:33;21.80;99.90
18868;DHT22;9563;49.240;9.088;2023-09-18T14:21:00;21.80;99.90
18868;DHT22;9563;49.240;9.088;2023-09-18T14:23:28;21.70;99.90
18868;DHT22;9563;49.240;9.088;2023-09-18T14:25:55;21.70;99.90
18868;DHT22;9563;49.240;9.088;2023-09-18T14:28:22;21.60;99.90
18868;DHT22;9563;49.240;9.088;2023-09-18T14:30:49;21.60;99.90
18868;DHT22;9563;49.240;9.088;2023-09-18T14:33:17;21.60;99.90
18868;DHT22;9563;49.240;9.088;2023-09-18T14:35:46;21.60;99.90
18868;DHT22;9563;49.240;9.088;2023-09-18T14:38:13;21.60;99.90
18868;DHT22;9563;49.240;9.088;2023-09-18T14:40:42;21.60;99.90
18868;DHT22;9563;49.240;9.088;2023-09-18T14:43:09;21.70;99.90
18868;DHT22;9563;49.240;9.088;2023-09-18T14:45:37;21.80;99.90
18868;DHT22;9563;49.240;9.088;2023-09-18T14:48:06;21.90;99.90
18868;DHT22;9563;49.240;9.088;2023-09-18T14:50:33;22.20;99.90
18868;DHT22;9563;49.240;9.088;2023-09-18T14:53:00;22.50;99.90
18868;DHT22;9563;49.240;9.088;2023-09-18T14:55:29;22.80;99.90
18868;DHT22;9563;49.240;9.088;2023-09-18T14:57:57;22.90;99.90
18868;DHT22;9563;49.240;9.088;2023-09-18T15:00:25;22.80;99.90
18868;DHT22;9563;49.240;9.088;2023-09-18T15:02:52;22.60;99.90
18868;DHT22;9563;49.240;9.088;2023-09-18T15:05:18;22.50;99.90
18868;DHT22;9563;49.240;9.088;2023-09-18T15:07:45;22.50;99.90
18868;DHT22;9563;49.240;9.088;2023-09-18T15:10:12;22.60;99.90
18868;DHT22;9563;49.240;9.088;2023-09-18T15:12:39;22.70;99.90
18868;DHT22;9563;49.240;9.088;2023-09-18T15:15:10;22.80;99.90
18868;DHT22;9563;49.240;9.088;2023-09-18T15:17:37;22.70;99.90
18868;DHT22;9563;49.240;9.088;2023-09-18T15:20:05;22.90;99.90
18868;DHT22;9563;49.240;9.088;2023-09-18T15:22:32;22.90;99.90
18868;DHT22;9563;49.240;9.088;2023-09-18T15:25:00;23.00;99.90
18868;DHT22;9563;49.240;9.088;2023-09-18T15:27:27;23.00;99.90
18868;DHT22;9563;49.240;9.088;2023-09-18T15:29:54;22.90;99.90
18868;DHT22;9563;49.240;9.088;2023-09-18T15:32:23;22.90;99.90
18868;DHT22;9563;49.240;9.088;2023-09-18T15:34:50;23.00;99.90
18868;DHT22;9563;49.240;9.088;2023-09-18T15:37:17;23.00;99.90
18868;DHT22;9563;49.240;9.088;2023-09-18T15:39:46;22.90;99.90
18868;DHT22;9563;49.240;9.088;2023-09-18T15:42:13;22.70;99.90
18868;DHT22;9563;49.240;9.088;2023-09-18T15:44:40;22.70;99.90
18868;DHT22;9563;49.240;9.088;2023-09-18T15:47:08;22.70;99.90
18868;DHT22;9563;49.240;9.088;2023-09-18T15:49:37;22.80;99.90
18868;DHT22;9563;49.240;9.088;2023-09-18T15:52:04;22.80;99.90
18868;DHT22;9563;49.240;9.088;2023-09-18T15:54:30;22.70;99.90
18868;DHT22;9563;49.240;9.088;2023-09-18T15:56:58;22.70;99.90
18868;DHT22;9563;49.240;9.088;2023-09-18T15:59:25;22.50;99.90
18868;DHT22;9563;49.240;9.088;2023-09-18T16:01:51;22.50;99.90
18868;DHT22;9563;49.240;9.088;2023-09-18T16:04:18;22.40;99.90
18868;DHT22;9563;49.240;9.088;2023-09-18T16:06:47;22.40;99.90
18868;DHT22;9563;49.240;9.088;2023-09-18T16:09:15;22.30;99.90
18868;DHT22;9563;49.240;9.088;2023-09-18T16:11:42;22.30;99.90
18868;DHT22;9563;49.240;9.088;2023-09-18T16:14:09;22.20;99.90
18868;DHT22;9563;49.240;9.088;2023-09-18T16:16:36;22.20;99.90
18868;DHT22;9563;49.240;9.088;2023-09-18T16:19:02;22.10;99.90
18868;DHT22;9563;49.240;9.088;2023-09-18T16:21:29;22.00;99.90
18868;DHT22;9563;49.240;9.088;2023-09-18T16:23:59;22.00;99.90
18868;DHT22;9563;49.240;9.088;2023-09-18T16:26:26;21.90;99.90
18868;DHT22;9563;49.240;9.088;2023-09-18T16:28:53;21.80;99.90
18868;DHT22;9563;49.240;9.088;2023-09-18T16:31:19;21.80;99.90
18868;DHT22;9563;49.240;9.088;2023-09-18T16:33:46;21.70;99.90
18868;DHT22;9563;49.240;9.088;2023-09-18T16:36:13;21.60;99.90
18868;DHT22;9563;49.240;9.088;2023-09-18T16:38:40;21.60;99.90
18868;DHT22;9563;49.240;9.088;2023-09-18T16:41:09;21.60;99.90
18868;DHT22;9563;49.240;9.088;2023-09-18T16:43:36;21.50;99.90
18868;DHT22;9563;49.240;9.088;2023-09-18T16:46:04;21.50;99.90
18868;DHT22;9563;49.240;9.088;2023-09-18T16:48:30;21.40;99.90
18868;DHT22;9563;49.240;9.088;2023-09-18T16:50:58;21.40;99.90
18868;DHT22;9563;49.240;9.088;2023-09-18T16:53:26;21.40;99.90
18868;DHT22;9563;49.240;9.088;2023-09-18T16:55:53;21.40;99.90
18868;DHT22;9563;49.240;9.088;2023-09-18T16:58:21;21.30;99.90
18868;DHT22;9563;49.240;9.088;2023-09-18T17:00:48;21.30;99.90
18868;DHT22;9563;49.240;9.088;2023-09-18T17:03:15;21.20;99.90
18868;DHT22;9563;49.240;9.088;2023-09-18T17:05:42;21.20;99.90
18868;DHT22;9563;49.240;9.088;2023-09-18T17:08:09;21.20;99.90
18868;DHT22;9563;49.240;9.088;2023-09-18T17:10:36;21.20;99.90
18868;DHT22;9563;49.240;9.088;2023-09-18T17:13:03;21.10;99.90
18868;DHT22;9563;49.240;9.088;2023-09-18T17:15:31;21.10;99.90
18868;DHT22;9563;49.240;9.088;2023-09-18T17:17:58;21.10;99.90
18868;DHT22;9563;49.240;9.088;2023-09-18T17:20:27;21.00;99.90
18868;DHT22;9563;49.240;9.088;2023-09-18T17:22:55;21.00;99.90
18868;DHT22;9563;49.240;9.088;2023-09-18T17:25:22;21.00;99.90
18868;DHT22;9563;49.240;9.088;2023-09-18T17:27:48;21.00;99.90
18868;DHT22;9563;49.240;9.088;2023-09-18T17:30:15;20.90;99.90
18868;DHT22;9563;49.240;9.088;2023-09-18T17:32:44;20.90;99.90
18868;DHT22;9563;49.240;9.088;2023-09-18T17:35:12;20.80;99.90
18868;DHT22;9563;49.240;9.088;2023-09-18T17:37:39;20.80;99.90
18868;DHT22;9563;49.240;9.088;2023-09-18T17:40:07;20.70;99.90
18868;DHT22;9563;49.240;9.088;2023-09-18T17:42:34;20.70;99.90
18868;DHT22;9563;49.240;9.088;2023-09-18T17:45:01;20.60;99.90
18868;DHT22;9563;49.240;9.088;2023-09-18T17:47:29;20.60;99.90
18868;DHT22;9563;49.240;9.088;2023-09-18T17:49:58;20.60;99.90
18868;DHT22;9563;49.240;9.088;2023-09-18T17:52:25;20.60;99.90
18868;DHT22;9563;49.240;9.088;2023-09-18T17:54:53;20.60;99.90
18868;DHT22;9563;49.240;9.088;2023-09-18T17:57:19;20.60;99.90
18868;DHT22;9563;49.240;9.088;2023-09-18T17:59:47;20.50;99.90
18868;DHT22;9563;49.240;9.088;2023-09-18T18:02:14;20.50;99.90
18868;DHT22;9563;49.240;9.088;2023-09-18T18:04:42;20.50;99.90
18868;DHT22;9563;49.240;9.088;2023-09-18T18:07:11;20.40;99.90
18868;DHT22;9563;49.240;9.088;2023-09-18T18:09:38;20.40;99.90
18868;DHT22;9563;49.240;9.088;2023-09-18T18:12:05;20.40;99.90
18868;DHT22;9563;49.240;9.088;2023-09-18T18:14:32;20.10;99.90
18868;DHT22;9563;49.240;9.088;2023-09-18T18:17:00;19.80;99.90
18868;DHT22;9563;49.240;9.088;2023-09-18T18:19:27;19.50;99.90
18868;DHT22;9563;49.240;9.088;2023-09-18T18:21:54;19.20;99.90
18868;DHT22;9563;49.240;9.088;2023-09-18T18:24:23;19.10;99.90
18868;DHT22;9563;49.240;9.088;2023-09-18T18:26:50;19.00;99.90
18868;DHT22;9563;49.240;9.088;2023-09-18T18:29:19;18.80;99.90
18868;DHT22;9563;49.240;9.088;2023-09-18T18:31:46;18.70;99.90
18868;DHT22;9563;49.240;9.088;2023-09-18T18:34:15;18.50;99.90
18868;DHT22;9563;49.240;9.088;2023-09-18T18:36:43;18.50;99.90
18868;DHT22;9563;49.240;9.088;2023-09-18T18:39:10;18.40;99.90
18868;DHT22;9563;49.240;9.088;2023-09-18T18:41:39;18.30;99.90
18868;DHT22;9563;49.240;9.088;2023-09-18T18:44:06;18.30;99.90
18868;DHT22;9563;49.240;9.088;2023-09-18T18:46:33;18.30;99.90
18868;DHT22;9563;49.240;9.088;2023-09-18T18:49:00;18.20;99.90
18868;DHT22;9563;49.240;9.088;2023-09-18T18:51:27;18.20;99.90
18868;DHT22;9563;49.240;9.088;2023-09-18T18:53:54;18.20;99.90
18868;DHT22;9563;49.240;9.088;2023-09-18T18:56:22;18.10;99.90
18868;DHT22;9563;49.240;9.088;2023-09-18T18:58:50;18.10;99.90
18868;DHT22;9563;49.240;9.088;2023-09-18T19:01:17;18.00;99.90
18868;DHT22;9563;49.240;9.088;2023-09-18T19:03:49;17.90;99.90
18868;DHT22;9563;49.240;9.088;2023-09-18T19:06:16;17.80;99.90
18868;DHT22;9563;49.240;9.088;2023-09-18T19:08:43;17.70;99.90
18868;DHT22;9563;49.240;9.088;2023-09-18T19:11:10;17.70;99.90
18868;DHT22;9563;49.240;9.088;2023-09-18T19:13:39;17.70;99.90
18868;DHT22;9563;49.240;9.088;2023-09-18T19:16:09;17.60;99.90
18868;DHT22;9563;49.240;9.088;2023-09-18T19:18:37;17.50;99.90
18868;DHT22;9563;49.240;9.088;2023-09-18T19:21:05;17.50;99.90
18868;DHT22;9563;49.240;9.088;2023-09-18T19:23:35;17.50;99.90
18868;DHT22;9563;49.240;9.088;2023-09-18T19:26:01;17.50;99.90
18868;DHT22;9563;49.240;9.088;2023-09-18T19:28:29;17.50;99.90
18868;DHT22;9563;49.240;9.088;2023-09-18T19:30:57;17.50;99.90
18868;DHT22;9563;49.240;9.088;2023-09-18T19:33:26;17.50;99.90
18868;DHT22;9563;49.240;9.088;2023-09-18T19:35:54;17.50;99.90
18868;DHT22;9563;49.240;9.088;2023-09-18T19:38:21;17.50;99.90
18868;DHT22;9563;49.240;9.088;2023-09-18T19:40:50;17.50;99.90
18868;DHT22;9563;49.240;9.088;2023-09-18T19:43:17;17.50;99.90
18868;DHT22;9563;49.240;9.088;2023-09-18T19:45:44;17.50;99.90
18868;DHT22;9563;49.240;9.088;2023-09-18T19:48:11;17.50;99.90
18868;DHT22;9563;49.240;9.088;2023-09-18T19:50:40;17.50;99.90
18868;DHT22;9563;49.240;9.088;2023-09-18T19:53:08;17.40;99.90